createdAt,value
2017-10-17T06:41:03.432Z,1736
2017-10-17T06:41:43.905Z,1740
2017-10-17T06:42:24.389Z,1756
2017-10-17T06:43:04.877Z,1788
2017-10-17T06:43:45.407Z,1800
2017-10-17T06:44:25.928Z,1816
2017-10-17T06:45:06.414Z,1832
2017-10-17T06:45:46.921Z,1852
2017-10-17T06:46:27.440Z,1868
2017-10-17T06:47:07.983Z,1884
2017-10-17T06:47:48.500Z,1916
2017-10-17T06:50:01.242Z,1972
2017-10-17T06:50:41.760Z,1996
2017-10-17T06:51:22.160Z,2028
2017-10-17T06:52:02.715Z,2044
2017-10-17T06:52:43.220Z,2072
2017-10-17T06:53:23.820Z,2092
2017-10-17T06:54:04.327Z,2120
2017-10-17T06:54:44.822Z,2128
2017-10-17T06:56:57.562Z,2204
2017-10-17T06:57:38.066Z,2224
2017-10-17T06:58:18.519Z,2248
2017-10-17T06:58:59.060Z,2276
2017-10-17T06:59:39.574Z,2296
2017-10-17T07:00:20.060Z,2308
2017-10-17T07:01:00.562Z,2328
2017-10-17T07:01:41.073Z,2356
2017-10-17T07:02:21.531Z,2376
2017-10-17T07:03:02.031Z,2380
2017-10-17T07:03:42.525Z,2384
2017-10-17T07:04:23.610Z,2408
2017-10-17T07:05:04.102Z,2440
2017-10-17T07:05:44.592Z,2440
2017-10-17T07:06:25.084Z,2448
2017-10-17T07:07:05.564Z,2476
2017-10-17T07:07:46.054Z,2504
2017-10-17T07:08:26.544Z,2540
2017-10-17T07:09:07.060Z,2548
2017-10-17T07:09:47.533Z,2560
2017-10-17T07:10:28.028Z,2588
2017-10-17T07:11:08.498Z,2616
2017-10-17T07:11:48.972Z,2604
2017-10-17T07:12:29.500Z,2652
2017-10-17T07:13:09.971Z,2664
2017-10-17T07:13:50.491Z,2684
2017-10-17T07:14:30.940Z,2692
2017-10-17T07:15:11.430Z,2732
2017-10-17T07:15:51.910Z,2724
2017-10-17T07:16:32.398Z,2732
2017-10-17T07:17:12.870Z,2748
2017-10-17T07:17:53.316Z,2772
2017-10-17T07:18:33.852Z,2780
2017-10-17T07:19:14.332Z,2804
2017-10-17T07:19:54.817Z,2812
2017-10-17T07:20:35.320Z,2864
2017-10-17T07:21:15.803Z,2876
2017-10-17T07:21:56.309Z,2872
2017-10-17T07:22:36.797Z,2872
2017-10-17T07:23:17.381Z,2888
2017-10-17T07:23:57.918Z,2888
2017-10-17T07:24:38.477Z,2908
2017-10-17T07:25:19.045Z,2932
2017-10-17T07:25:59.633Z,2920
2017-10-17T07:26:40.808Z,2940
2017-10-17T07:27:21.349Z,2992
2017-10-17T07:28:01.871Z,2988
2017-10-17T07:28:42.449Z,3016
2017-10-17T07:29:23.015Z,3032
2017-10-17T07:30:03.578Z,3012
2017-10-17T07:30:44.102Z,3000
2017-10-17T07:31:24.625Z,3012
2017-10-17T07:32:05.191Z,3028
2017-10-17T07:32:45.826Z,3040
2017-10-17T07:33:26.392Z,3060
2017-10-17T07:34:06.968Z,3068
2017-10-17T07:34:47.501Z,3088
2017-10-17T07:35:28.092Z,3100
2017-10-17T07:36:08.606Z,3116
2017-10-17T07:36:49.181Z,3132
2017-10-17T07:37:29.731Z,3148
2017-10-17T07:38:10.309Z,3156
2017-10-17T07:38:50.818Z,3168
2017-10-17T07:39:32.135Z,3180
2017-10-17T07:40:12.701Z,3192
2017-10-17T07:40:53.270Z,3208
2017-10-17T07:41:33.790Z,3224
2017-10-17T07:42:14.436Z,3240
2017-10-17T07:42:55.006Z,3256
2017-10-17T07:43:35.567Z,3272
2017-10-17T07:44:16.280Z,3288
2017-10-17T07:44:56.871Z,3300
2017-10-17T07:45:37.443Z,3316
2017-10-17T07:46:18.009Z,3336
2017-10-17T07:46:58.558Z,3352
2017-10-17T07:47:39.149Z,3364
2017-10-17T07:48:19.690Z,3376
2017-10-17T07:49:00.230Z,3396
2017-10-17T07:49:40.794Z,3412
2017-10-17T07:50:21.343Z,3424
2017-10-17T07:51:01.902Z,3432
2017-10-17T07:51:42.537Z,3440
2017-10-17T07:52:23.110Z,3452
2017-10-17T07:53:03.657Z,3468
2017-10-17T07:53:44.897Z,3472
2017-10-17T07:54:25.449Z,3484
2017-10-17T07:55:06.013Z,3496
2017-10-17T07:55:46.634Z,3512
2017-10-17T07:56:28.055Z,3520
2017-10-17T07:57:08.621Z,3528
2017-10-17T07:57:49.211Z,3544
2017-10-17T07:58:29.782Z,3552
2017-10-17T07:59:10.397Z,3564
2017-10-17T07:59:50.948Z,3568
2017-10-17T08:00:31.493Z,3576
2017-10-17T08:01:12.102Z,3576
2017-10-17T08:01:53.267Z,3576
2017-10-17T08:02:33.840Z,3580
2017-10-17T08:03:14.399Z,3584
2017-10-17T08:03:54.954Z,3592
2017-10-17T08:04:35.533Z,3600
2017-10-17T08:05:16.124Z,3612
2017-10-17T08:05:56.609Z,3620
2017-10-17T08:06:37.204Z,3640
2017-10-17T08:07:18.549Z,3656
2017-10-17T08:07:59.147Z,3660
2017-10-17T08:08:39.732Z,3668
2017-10-17T08:09:20.271Z,3680
2017-10-17T08:10:00.824Z,3692
2017-10-17T08:10:41.370Z,3700
2017-10-17T08:11:21.925Z,3708
2017-10-17T08:12:02.475Z,3716
2017-10-17T08:12:43.062Z,3732
2017-10-17T08:13:23.560Z,3736
2017-10-17T08:14:04.157Z,3752
2017-10-17T08:14:44.719Z,3760
2017-10-17T08:15:25.348Z,3772
2017-10-17T08:16:05.913Z,3780
2017-10-17T08:16:46.483Z,3788
2017-10-17T08:17:27.026Z,3796
2017-10-17T08:18:08.557Z,3804
2017-10-17T08:18:49.820Z,3816
2017-10-17T08:19:30.403Z,3840
2017-10-17T08:20:10.998Z,3912
2017-10-17T08:20:51.561Z,4068
2017-10-17T08:21:32.177Z,4272
2017-10-17T08:22:12.722Z,4440
2017-10-17T08:22:53.280Z,4528
2017-10-17T08:23:33.841Z,4564
2017-10-17T08:24:14.421Z,4576
2017-10-17T08:24:54.991Z,4588
2017-10-17T08:25:35.547Z,4604
2017-10-17T08:26:16.072Z,4640
2017-10-17T08:26:56.646Z,4668
2017-10-17T08:27:37.245Z,4700
2017-10-17T08:28:17.801Z,4732
2017-10-17T08:28:58.382Z,4772
2017-10-17T08:29:38.964Z,4772
2017-10-17T08:30:19.477Z,4824
2017-10-17T08:31:00.061Z,4844
2017-10-17T08:31:40.561Z,4824
2017-10-17T08:32:21.108Z,4712
2017-10-17T08:33:03.053Z,4516
2017-10-17T08:33:43.623Z,4320
2017-10-17T08:34:25.042Z,4252
2017-10-17T08:35:05.582Z,4304
2017-10-17T08:35:46.107Z,4500
2017-10-17T08:36:26.682Z,4736
2017-10-17T08:37:07.273Z,4896
2017-10-17T08:37:47.834Z,4980
2017-10-17T08:38:28.436Z,4960
2017-10-17T08:39:09.004Z,5008
2017-10-17T08:39:49.573Z,5060
2017-10-17T08:40:30.148Z,5016
2017-10-17T08:41:10.688Z,5112
2017-10-17T08:41:51.263Z,5180
2017-10-17T08:42:31.803Z,5212
2017-10-17T08:43:12.347Z,5188
2017-10-17T08:43:52.922Z,5160
2017-10-17T08:44:33.459Z,5140
2017-10-17T08:45:14.026Z,5152
2017-10-17T08:45:54.580Z,5180
2017-10-17T08:46:35.152Z,5160
2017-10-17T08:47:15.733Z,5164
2017-10-17T08:47:56.290Z,5100
2017-10-17T08:48:36.845Z,5072
2017-10-17T08:49:17.426Z,5044
2017-10-17T08:49:57.970Z,4884
2017-10-17T08:50:38.524Z,4752
2017-10-17T08:51:19.122Z,4708
2017-10-17T08:51:59.707Z,4792
2017-10-17T08:52:40.297Z,4980
2017-10-17T08:53:20.917Z,5204
2017-10-17T08:54:01.458Z,5412
2017-10-17T08:54:42.094Z,5540
2017-10-17T08:55:22.888Z,5584
2017-10-17T08:56:03.526Z,5580
2017-10-17T08:56:44.094Z,5564
2017-10-17T08:57:24.695Z,5500
2017-10-17T08:58:05.234Z,5456
2017-10-17T08:58:45.799Z,5472
2017-10-17T08:59:26.342Z,5464
2017-10-17T09:00:06.918Z,5416
2017-10-17T09:00:48.063Z,5396
2017-10-17T09:01:28.624Z,5260
2017-10-17T09:02:09.176Z,5092
2017-10-17T09:02:49.752Z,4948
2017-10-17T09:03:30.311Z,4884
2017-10-17T09:04:10.879Z,4892
2017-10-17T09:04:51.447Z,4884
2017-10-17T09:05:32.063Z,4848
2017-10-17T09:06:12.664Z,4856
2017-10-17T09:06:53.230Z,4840
2017-10-17T09:07:33.843Z,4856
2017-10-17T09:08:14.404Z,4892
2017-10-17T09:08:54.986Z,4880
2017-10-17T09:09:35.562Z,4876
2017-10-17T09:10:16.197Z,5004
2017-10-17T09:10:56.794Z,4996
2017-10-17T09:11:37.380Z,5036
2017-10-17T09:12:17.920Z,5032
2017-10-17T09:12:58.491Z,5100
2017-10-17T09:13:39.115Z,5144
2017-10-17T09:14:19.673Z,5148
2017-10-17T09:15:00.234Z,5168
2017-10-17T09:15:40.860Z,5160
2017-10-17T09:16:21.419Z,5180
2017-10-17T09:17:01.995Z,5240
2017-10-17T09:17:42.540Z,5224
2017-10-17T09:18:23.059Z,5268
2017-10-17T09:19:03.614Z,5260
2017-10-17T09:19:44.188Z,5192
2017-10-17T09:20:24.734Z,5168
2017-10-17T09:21:05.300Z,5160
2017-10-17T09:21:45.911Z,5088
2017-10-17T09:22:26.441Z,5192
2017-10-17T09:23:06.993Z,5208
2017-10-17T09:23:47.541Z,5212
2017-10-17T09:24:28.119Z,5428
2017-10-17T09:25:08.665Z,5432
2017-10-17T09:25:49.230Z,5476
2017-10-17T09:26:30.702Z,5512
2017-10-17T09:27:11.272Z,5488
2017-10-17T09:27:51.840Z,5624
2017-10-17T09:28:33.082Z,5692
2017-10-17T09:29:13.660Z,5716
2017-10-17T09:29:54.201Z,5720
2017-10-17T09:30:34.784Z,5704
2017-10-17T09:31:15.390Z,5696
2017-10-17T09:31:56.580Z,5660
2017-10-17T09:32:37.124Z,5708
2017-10-17T09:33:17.676Z,5716
2017-10-17T09:33:58.235Z,5736
2017-10-17T09:34:39.582Z,5740
2017-10-17T09:35:20.122Z,5744
2017-10-17T09:36:00.673Z,5744
2017-10-17T09:36:41.261Z,5752
2017-10-17T09:37:21.814Z,5772
2017-10-17T09:38:02.391Z,5796
2017-10-17T09:38:42.947Z,5828
2017-10-17T09:39:23.545Z,5864
2017-10-17T09:40:04.096Z,5900
2017-10-17T09:40:44.633Z,5940
2017-10-17T09:41:25.218Z,6004
2017-10-17T09:42:05.861Z,6052
2017-10-17T09:42:46.432Z,6108
2017-10-17T09:43:26.983Z,6172
2017-10-17T09:44:08.086Z,6224
2017-10-17T09:44:48.676Z,6296
2017-10-17T09:45:29.191Z,6356
2017-10-17T09:46:09.735Z,6420
2017-10-17T09:46:50.305Z,6476
2017-10-17T09:47:30.870Z,6564
2017-10-17T09:48:11.489Z,6636
2017-10-17T09:48:52.062Z,6708
2017-10-17T09:49:32.621Z,6772
2017-10-17T09:50:13.294Z,6836
2017-10-17T09:50:53.932Z,6900
2017-10-17T09:51:34.519Z,6972
2017-10-17T09:52:15.080Z,7052
2017-10-17T09:52:56.587Z,7168
2017-10-17T09:53:37.152Z,7272
2017-10-17T09:54:17.722Z,7392
2017-10-17T09:54:58.343Z,7500
2017-10-17T09:55:38.952Z,7596
2017-10-17T09:56:19.504Z,7684
2017-10-17T09:57:00.044Z,7792
2017-10-17T09:57:40.634Z,7900
2017-10-17T09:58:21.195Z,8000
2017-10-17T09:59:01.772Z,8104
2017-10-17T09:59:42.340Z,8220
2017-10-17T10:00:22.936Z,8360
2017-10-17T10:01:03.612Z,8292
2017-10-17T10:01:44.200Z,8704
2017-10-17T10:02:24.804Z,9024
2017-10-17T10:03:05.440Z,9268
2017-10-17T10:03:46.044Z,9532
2017-10-17T10:04:26.697Z,9660
2017-10-17T10:05:07.329Z,10100
2017-10-17T10:05:47.946Z,10112
2017-10-17T10:06:28.526Z,10220
2017-10-17T10:07:09.075Z,10500
2017-10-17T10:07:49.661Z,10892
2017-10-17T10:08:30.903Z,11060
2017-10-17T10:09:11.533Z,11300
2017-10-17T10:09:52.589Z,11608
2017-10-17T10:10:33.198Z,11768
2017-10-17T10:11:13.818Z,11948
2017-10-17T10:11:54.397Z,11692
2017-10-17T10:12:34.965Z,11740
2017-10-17T10:13:18.475Z,12064
2017-10-17T10:14:00.071Z,12624
2017-10-17T10:14:40.702Z,12848
2017-10-17T10:15:21.229Z,13020
2017-10-17T10:16:02.333Z,13652
2017-10-17T10:16:43.628Z,15072
2017-10-17T10:17:24.233Z,17088
2017-10-17T10:18:04.861Z,22048
2017-10-17T10:18:45.461Z,32736
2017-10-17T10:19:25.985Z,53632
2017-10-17T10:20:06.582Z,72928
2017-10-17T10:20:47.139Z,76256
2017-10-17T10:21:27.660Z,80096
2017-10-17T10:22:09.104Z,81792
2017-10-17T10:22:49.674Z,78624
2017-10-17T10:23:30.213Z,73632
2017-10-17T10:24:10.758Z,64928
2017-10-17T10:24:51.311Z,57664
2017-10-17T10:25:31.876Z,54080
2017-10-17T10:26:12.440Z,52448
2017-10-17T10:26:52.964Z,52000
2017-10-17T10:27:33.560Z,52512
2017-10-17T10:28:14.135Z,53216
2017-10-17T10:28:54.692Z,51296
2017-10-17T10:29:35.314Z,50816
2017-10-17T10:30:15.879Z,51008
2017-10-17T10:30:56.480Z,49664
2017-10-17T10:31:37.036Z,49952
2017-10-17T10:32:17.618Z,49216
2017-10-17T10:32:58.222Z,48384
2017-10-17T10:33:38.749Z,47584
2017-10-17T10:34:19.352Z,47008
2017-10-17T10:34:59.854Z,46144
2017-10-17T10:35:40.392Z,45696
2017-10-17T10:36:20.927Z,44704
2017-10-17T10:37:01.489Z,44256
2017-10-17T10:37:41.976Z,45344
2017-10-17T10:38:22.497Z,46016
2017-10-17T10:39:03.033Z,47488
2017-10-17T10:39:43.569Z,49120
2017-10-17T10:40:24.167Z,50080
2017-10-17T10:41:04.714Z,51296
2017-10-17T10:41:45.241Z,52608
2017-10-17T10:42:25.772Z,55072
2017-10-17T10:43:06.367Z,57408
2017-10-17T10:43:46.884Z,59488
2017-10-17T10:44:27.364Z,60800
2017-10-17T10:45:07.853Z,61472
2017-10-17T10:45:48.370Z,63552
2017-10-17T10:46:28.852Z,64512
2017-10-17T10:47:09.315Z,65984
2017-10-17T10:47:49.764Z,67648
2017-10-17T10:48:30.288Z,68768
2017-10-17T10:49:10.777Z,68992
2017-10-17T10:49:51.247Z,68480
2017-10-17T10:50:31.716Z,70592
2017-10-17T10:52:44.451Z,71648
2017-10-17T10:53:24.941Z,72128
2017-10-17T10:54:05.452Z,71488
2017-10-17T10:54:45.993Z,71264
2017-10-17T10:55:26.455Z,71232
2017-10-17T10:56:06.952Z,70720
2017-10-17T10:56:47.675Z,70912
2017-10-17T10:57:28.168Z,70592
2017-10-17T10:58:08.656Z,70592
2017-10-17T10:58:49.184Z,71840
2017-10-17T10:59:29.661Z,72192
2017-10-17T11:00:10.110Z,72992
2017-10-17T11:02:27.967Z,70144
2017-10-17T11:03:08.447Z,69728
2017-10-17T11:03:48.942Z,69536
2017-10-17T11:04:29.443Z,67520
2017-10-17T11:05:09.931Z,67232
2017-10-17T11:05:50.491Z,64928
2017-10-17T11:06:31.505Z,65440
2017-10-17T11:07:11.994Z,68000
2017-10-17T11:07:52.519Z,68288
2017-10-17T11:08:32.990Z,65120
2017-10-17T11:09:13.473Z,67520
2017-10-17T11:09:53.996Z,68512
2017-10-17T11:10:34.500Z,67680
2017-10-17T11:11:15.016Z,63968
2017-10-17T11:11:55.572Z,66432
2017-10-17T11:12:36.095Z,66720
2017-10-17T11:13:16.630Z,63616
2017-10-17T11:13:57.154Z,65440
2017-10-17T11:14:37.655Z,64672
2017-10-17T11:15:18.156Z,62816
2017-10-17T11:15:58.658Z,61152
2017-10-17T11:16:39.125Z,61664
2017-10-17T11:17:19.598Z,61248
2017-10-17T11:18:00.113Z,57056
2017-10-17T11:18:40.608Z,55424
2017-10-17T11:19:21.107Z,58336
2017-10-17T11:20:01.651Z,49408
2017-10-17T11:20:42.170Z,50752
2017-10-17T11:23:10.190Z,49184
2017-10-17T11:23:50.703Z,48576
2017-10-17T11:24:31.223Z,46688
2017-10-17T11:25:11.663Z,44896
2017-10-17T11:25:52.214Z,43616
2017-10-17T11:26:32.702Z,42080
2017-10-17T11:27:13.214Z,40608
2017-10-17T11:27:53.708Z,39264
2017-10-17T11:28:34.721Z,37728
2017-10-17T11:29:15.219Z,36640
2017-10-17T11:29:55.728Z,35264
2017-10-17T11:30:36.237Z,33696
2017-10-17T11:31:16.773Z,32320
2017-10-17T11:31:57.250Z,31520
2017-10-17T11:32:37.734Z,30368
2017-10-17T11:33:18.265Z,29120
2017-10-17T11:33:58.739Z,27616
2017-10-17T11:34:39.223Z,26560
2017-10-17T11:35:19.737Z,25824
2017-10-17T11:36:00.214Z,24448
2017-10-17T11:36:40.764Z,24736
2017-10-17T11:37:21.266Z,24352
2017-10-17T11:38:01.787Z,23072
2017-10-17T11:38:42.286Z,23424
2017-10-17T11:39:22.828Z,22976
2017-10-17T11:40:03.335Z,22496
2017-10-17T11:40:43.807Z,22080
2017-10-17T11:41:24.284Z,21536
2017-10-17T11:42:04.772Z,21216
2017-10-17T11:42:45.309Z,20864
2017-10-17T11:43:25.864Z,20448
2017-10-17T11:44:06.391Z,20224
2017-10-17T11:44:46.955Z,19872
2017-10-17T11:45:27.372Z,19584
2017-10-17T11:46:07.968Z,19392
2017-10-17T11:46:48.466Z,19072
2017-10-17T11:47:28.957Z,18816
2017-10-17T11:48:09.441Z,18624
2017-10-17T11:48:49.946Z,18432
2017-10-17T11:49:30.459Z,18208
2017-10-17T11:50:11.003Z,17984
2017-10-17T11:50:51.552Z,17888
2017-10-17T11:51:32.025Z,17792
2017-10-17T11:52:12.529Z,17568
2017-10-17T11:52:53.023Z,17408
2017-10-17T11:53:33.580Z,17280
2017-10-17T11:54:14.136Z,17280
2017-10-17T11:54:54.740Z,16880
2017-10-17T11:55:35.351Z,16660
2017-10-17T11:56:15.957Z,16556
2017-10-17T11:56:56.542Z,16328
2017-10-17T11:57:37.140Z,16208
2017-10-17T11:58:17.718Z,16052
2017-10-17T11:58:58.290Z,15976
2017-10-17T11:59:38.875Z,15816
2017-10-17T12:00:19.488Z,15804
2017-10-17T12:01:00.070Z,15680
2017-10-17T12:01:40.670Z,15676
2017-10-17T12:02:21.261Z,15760
2017-10-17T12:03:01.919Z,15756
2017-10-17T12:03:43.143Z,15700
2017-10-17T12:04:23.774Z,15360
2017-10-17T12:05:04.340Z,15416
2017-10-17T12:05:45.933Z,15152
2017-10-17T12:06:26.485Z,14668
2017-10-17T12:07:07.058Z,14496
2017-10-17T12:07:47.629Z,14208
2017-10-17T12:08:28.162Z,13700
2017-10-17T12:09:08.719Z,13780
2017-10-17T12:09:49.280Z,13880
2017-10-17T12:10:30.545Z,13768
2017-10-17T12:11:11.090Z,12948
2017-10-17T12:11:51.603Z,12484
2017-10-17T12:12:32.119Z,12268
2017-10-17T12:13:12.632Z,12656
2017-10-17T12:13:53.748Z,12092
2017-10-17T12:14:34.233Z,12576
2017-10-17T12:15:14.737Z,12576
2017-10-17T12:15:55.220Z,12396
2017-10-17T12:16:35.714Z,11768
2017-10-17T12:17:16.220Z,11128
2017-10-17T12:17:56.788Z,11284
2017-10-17T12:18:37.271Z,11216
2017-10-17T12:19:17.762Z,10296
2017-10-17T12:19:58.311Z,10348
2017-10-17T12:20:38.834Z,11304
2017-10-17T12:21:19.356Z,11972
2017-10-17T12:21:59.916Z,11780
2017-10-17T12:22:40.498Z,11676
2017-10-17T12:23:21.077Z,11252
2017-10-17T12:24:01.592Z,11968
2017-10-17T12:24:42.140Z,12620
2017-10-17T12:25:22.660Z,12896
2017-10-17T12:26:03.141Z,12676
2017-10-17T12:26:43.663Z,12368
2017-10-17T12:27:24.190Z,12012
2017-10-17T12:28:04.705Z,11432
2017-10-17T12:28:46.165Z,11196
2017-10-17T12:29:26.657Z,10876
2017-10-17T12:30:07.205Z,10800
2017-10-17T12:30:47.711Z,9960
2017-10-17T12:31:28.239Z,10896
2017-10-17T12:32:08.711Z,11028
2017-10-17T12:32:49.211Z,9592
2017-10-17T12:33:29.691Z,10056
2017-10-17T12:34:10.252Z,10608
2017-10-17T12:34:50.817Z,11580
2017-10-17T12:35:31.272Z,10940
2017-10-17T12:36:11.834Z,10904
2017-10-17T12:36:52.324Z,11412
2017-10-17T12:37:32.832Z,11524
2017-10-17T12:38:13.311Z,12108
2017-10-17T12:38:53.912Z,12404
2017-10-17T12:39:34.451Z,12396
2017-10-17T12:40:14.993Z,12060
2017-10-17T12:40:55.546Z,11804
2017-10-17T12:41:36.065Z,11088
2017-10-17T12:42:16.745Z,11460
2017-10-17T12:42:57.231Z,10368
2017-10-17T12:43:37.829Z,10376
2017-10-17T12:44:18.372Z,9580
2017-10-17T12:44:58.882Z,8260
2017-10-17T12:45:39.378Z,8208
2017-10-17T12:46:19.879Z,9296
2017-10-17T12:47:00.370Z,8308
2017-10-17T12:47:41.656Z,8784
2017-10-17T12:48:22.142Z,9324
2017-10-17T12:49:02.626Z,9040
2017-10-17T12:49:43.162Z,9260
2017-10-17T12:50:23.653Z,9276
2017-10-17T12:51:04.218Z,9512
2017-10-17T12:51:44.671Z,9768
2017-10-17T12:52:25.200Z,11140
2017-10-17T12:53:06.574Z,11244
2017-10-17T12:53:47.077Z,10628
2017-10-17T12:54:27.584Z,9888
2017-10-17T12:55:08.087Z,9700
2017-10-17T12:55:48.608Z,9632
2017-10-17T12:56:29.100Z,8988
2017-10-17T12:57:09.613Z,8040
2017-10-17T12:57:50.105Z,7708
2017-10-17T12:58:30.591Z,7392
2017-10-17T12:59:11.099Z,9076
2017-10-17T12:59:51.601Z,10772
2017-10-17T13:00:32.102Z,11728
2017-10-17T13:01:12.611Z,11512
2017-10-17T13:01:53.155Z,11108
2017-10-17T13:02:33.945Z,10724
2017-10-17T13:03:14.461Z,11084
2017-10-17T13:03:54.990Z,12032
2017-10-17T13:04:35.516Z,11544
2017-10-17T13:05:16.039Z,10832
2017-10-17T13:05:56.519Z,9900
2017-10-17T13:06:37.035Z,10124
2017-10-17T13:07:17.585Z,9680
2017-10-17T13:07:58.165Z,9544
2017-10-17T13:08:38.685Z,7944
2017-10-17T13:09:19.298Z,7400
2017-10-17T13:09:59.831Z,7320
2017-10-17T13:10:40.356Z,8136
2017-10-17T13:11:20.877Z,8648
2017-10-17T13:12:02.213Z,8852
2017-10-17T13:12:42.765Z,8388
2017-10-17T13:13:23.325Z,7868
2017-10-17T13:14:03.858Z,7060
2017-10-17T13:14:44.380Z,6404
2017-10-17T13:15:24.994Z,6116
2017-10-17T13:16:05.542Z,5812
2017-10-17T13:16:46.108Z,6104
2017-10-17T13:17:26.638Z,6876
2017-10-17T13:18:07.271Z,7312
2017-10-17T13:18:47.782Z,7800
2017-10-17T13:19:28.917Z,8152
2017-10-17T13:20:09.695Z,7884
2017-10-17T13:20:50.112Z,7432
2017-10-17T13:21:30.709Z,7040
2017-10-17T13:22:11.224Z,6868
2017-10-17T13:22:51.779Z,6612
2017-10-17T13:23:32.319Z,6732
2017-10-17T13:24:12.902Z,7100
2017-10-17T13:24:53.423Z,6856
2017-10-17T13:25:33.919Z,6580
2017-10-17T13:26:14.446Z,6476
2017-10-17T13:26:55.698Z,6528
2017-10-17T13:27:35.832Z,6532
2017-10-17T13:28:16.463Z,6372
2017-10-17T13:28:56.948Z,6404
2017-10-17T13:29:37.456Z,6160
2017-10-17T13:30:17.937Z,6156
2017-10-17T13:30:58.459Z,6028
2017-10-17T13:31:38.977Z,5892
2017-10-17T13:32:19.446Z,5828
2017-10-17T13:32:59.967Z,5548
2017-10-17T13:33:40.420Z,5288
2017-10-17T13:34:20.932Z,5024
2017-10-17T13:35:01.494Z,4964
2017-10-17T13:35:41.983Z,5104
2017-10-17T13:36:22.482Z,5024
2017-10-17T13:37:03.014Z,4928
2017-10-17T13:37:43.498Z,4584
2017-10-17T13:38:24.045Z,4292
2017-10-17T13:39:04.600Z,4180
2017-10-17T13:39:45.114Z,4196
2017-10-17T13:40:25.682Z,4308
2017-10-17T13:41:06.177Z,4268
2017-10-17T13:41:46.661Z,4048
2017-10-17T13:42:27.247Z,4084
2017-10-17T13:43:07.797Z,3832
2017-10-17T13:43:48.356Z,3712
2017-10-17T13:44:29.002Z,3972
2017-10-17T13:45:09.583Z,4016
2017-10-17T13:45:50.861Z,3956
2017-10-17T13:46:31.463Z,3888
2017-10-17T13:47:12.070Z,3792
2017-10-17T13:47:52.674Z,3656
2017-10-17T13:48:33.291Z,3640
2017-10-17T13:49:16.731Z,3624
2017-10-17T13:49:57.228Z,3704
2017-10-17T13:50:37.770Z,3756
2017-10-17T13:51:18.312Z,3744
2017-10-17T13:51:58.880Z,3736
2017-10-17T13:52:39.520Z,3648
2017-10-17T13:53:20.080Z,3552
2017-10-17T13:54:00.625Z,3476
2017-10-17T13:54:41.250Z,3456
2017-10-17T13:55:21.770Z,3504
2017-10-17T13:56:02.348Z,3504
2017-10-17T13:56:42.883Z,3444
2017-10-17T13:57:23.474Z,3428
2017-10-17T13:58:04.039Z,3376
2017-10-17T13:58:44.591Z,3248
2017-10-17T13:59:25.115Z,3168
2017-10-17T14:00:05.645Z,3196
2017-10-17T14:00:46.133Z,3228
2017-10-17T14:01:26.672Z,3284
2017-10-17T14:02:07.169Z,3320
2017-10-17T14:02:47.676Z,3380
2017-10-17T14:03:28.188Z,3360
2017-10-17T14:04:08.762Z,3360
2017-10-17T14:04:49.479Z,3292
2017-10-17T14:05:30.144Z,3248
2017-10-17T14:06:10.713Z,3232
2017-10-17T14:06:51.282Z,3196
2017-10-17T14:07:31.785Z,3148
2017-10-17T14:08:12.315Z,3072
2017-10-17T14:08:52.833Z,3016
2017-10-17T14:09:33.339Z,3008
2017-10-17T14:10:13.849Z,2952
2017-10-17T14:10:54.353Z,2912
2017-10-17T14:11:34.877Z,2980
2017-10-17T14:12:15.427Z,3000
2017-10-17T14:12:55.934Z,3052
2017-10-17T14:13:36.464Z,3076
2017-10-17T14:14:16.927Z,3120
2017-10-17T14:14:57.399Z,3124
2017-10-17T14:15:37.917Z,3092
2017-10-17T14:16:18.405Z,3076
2017-10-17T14:16:58.926Z,3028
2017-10-17T14:17:41.315Z,3052
2017-10-17T14:18:21.814Z,3096
2017-10-17T14:19:02.272Z,3120
2017-10-17T14:19:42.768Z,3124
2017-10-17T14:20:23.307Z,3136
2017-10-17T14:21:03.825Z,3140
2017-10-17T14:21:44.328Z,3136
2017-10-17T14:22:24.815Z,3132
2017-10-17T14:23:05.311Z,3116
2017-10-17T14:23:45.801Z,3104
2017-10-17T14:24:26.294Z,3092
2017-10-17T14:25:06.769Z,3076
2017-10-17T14:25:47.217Z,3036
2017-10-17T14:26:27.720Z,3004
2017-10-17T14:27:08.186Z,2972
2017-10-17T14:27:48.664Z,2984
2017-10-17T14:28:29.195Z,2980
2017-10-17T14:29:09.715Z,2968
2017-10-17T14:29:50.216Z,2948
2017-10-17T14:30:30.693Z,2916
2017-10-17T14:31:11.175Z,2892
2017-10-17T14:31:51.699Z,2856
2017-10-17T14:32:32.195Z,2820
2017-10-17T14:33:12.680Z,2784
2017-10-17T14:33:53.186Z,2788
2017-10-17T14:34:33.671Z,2792
2017-10-17T14:35:15.033Z,2800
2017-10-17T14:37:48.117Z,2736
2017-10-17T14:38:28.602Z,2708
2017-10-17T14:39:09.072Z,2672
2017-10-17T14:39:49.569Z,2632
2017-10-17T14:40:30.130Z,2620
2017-10-17T14:41:10.557Z,2632
2017-10-17T14:41:51.109Z,2628
2017-10-17T14:42:31.631Z,2628
2017-10-17T14:43:12.112Z,2612
2017-10-17T14:43:52.608Z,2576
2017-10-17T14:44:33.111Z,2536
2017-10-17T14:45:13.591Z,2508
2017-10-17T14:45:54.163Z,2488
2017-10-17T14:46:34.657Z,2464
2017-10-17T14:47:15.167Z,2452
2017-10-17T14:47:55.664Z,2428
2017-10-17T14:48:36.141Z,2396
2017-10-17T14:49:16.672Z,2388
2017-10-17T14:49:57.189Z,2364
2017-10-17T14:50:37.684Z,2352
2017-10-17T14:51:18.180Z,2312
2017-10-17T14:51:58.809Z,2292
2017-10-17T14:52:39.383Z,2252
2017-10-17T14:53:19.862Z,2228
2017-10-17T14:54:00.372Z,2228
2017-10-17T14:54:40.862Z,2248
2017-10-17T14:55:21.392Z,2240
2017-10-17T14:56:01.890Z,2232
2017-10-17T14:56:42.399Z,2216
2017-10-17T14:57:22.901Z,2216
2017-10-17T14:58:03.395Z,2204
2017-10-17T14:58:43.889Z,2192
2017-10-17T14:59:24.394Z,2160
2017-10-17T15:00:04.887Z,2124
2017-10-17T15:00:45.376Z,2120
2017-10-17T15:01:26.683Z,2120
2017-10-17T15:02:07.184Z,2112
2017-10-17T15:02:47.659Z,2108
2017-10-17T15:03:28.155Z,2092
2017-10-17T15:04:08.649Z,2052
2017-10-17T15:04:49.145Z,2032
2017-10-17T15:05:29.635Z,2044
2017-10-17T15:06:10.144Z,2048
2017-10-17T15:06:50.666Z,2052
2017-10-17T15:07:31.166Z,2048
2017-10-17T15:08:11.651Z,2040
2017-10-17T15:08:52.177Z,2032
2017-10-17T15:09:32.660Z,2024
2017-10-17T15:10:13.159Z,2012
2017-10-17T15:10:53.605Z,2000
2017-10-17T15:11:34.083Z,1984
2017-10-17T15:12:14.611Z,1968
2017-10-17T15:12:55.148Z,1956
2017-10-17T15:13:35.721Z,1944
2017-10-17T15:14:16.200Z,1932
2017-10-17T15:14:57.439Z,1924
2017-10-17T15:15:37.936Z,1908
2017-10-17T15:16:19.035Z,1896
2017-10-17T15:16:59.571Z,1884
2017-10-17T15:17:40.168Z,1868
2017-10-17T15:18:20.690Z,1860
2017-10-17T15:19:01.173Z,1844
2017-10-17T15:19:41.674Z,1828
2017-10-17T15:20:22.126Z,1820
2017-10-17T15:21:02.616Z,1804
2017-10-17T15:21:43.049Z,1792
2017-10-17T15:22:23.514Z,1780
2017-10-17T15:23:04.010Z,1768
2017-10-17T15:23:44.531Z,1756
2017-10-17T15:24:25.018Z,1744
2017-10-17T15:25:05.524Z,1732
2017-10-17T15:25:45.997Z,1716
2017-10-17T15:26:26.494Z,1704
2017-10-17T15:27:06.992Z,1680
2017-10-17T15:27:47.486Z,1660
2017-10-17T15:28:27.972Z,1648
2017-10-17T15:29:08.472Z,1648
2017-10-17T15:29:48.960Z,1636
2017-10-17T15:30:29.450Z,1620
2017-10-17T15:31:09.960Z,1608
2017-10-17T15:31:50.545Z,1596
2017-10-17T15:32:31.047Z,1580
2017-10-17T15:33:12.010Z,1568
2017-10-17T15:33:52.501Z,1556
2017-10-17T15:34:32.993Z,1548
2017-10-17T15:35:13.477Z,1536
2017-10-17T15:35:53.972Z,1524
2017-10-17T15:36:34.465Z,1508
2017-10-17T15:37:14.959Z,1492
2017-10-17T15:37:55.436Z,1480
2017-10-17T15:38:35.941Z,1464
2017-10-17T15:39:16.429Z,1440
2017-10-17T15:39:56.925Z,1416
2017-10-17T15:40:37.437Z,1396
2017-10-17T15:41:17.931Z,1376
2017-10-17T15:41:58.436Z,1356
2017-10-17T15:42:38.926Z,1344
2017-10-17T15:43:19.443Z,1336
2017-10-17T15:43:59.900Z,1316
2017-10-17T15:44:40.405Z,1296
2017-10-17T15:45:20.911Z,1288